Time;durP1;ratioP1;P1;durP2;ratioP2;P2;SDS_P1;SDS_P2;PMS_P1;PMS_P2;Temp;Humidity;BMP_temperature;BMP_pressure;BME280_temperature;BME280_humidity;BME280_pressure;Samples;Min_cycle;Max_cycle;Signal;HPM_P1;HPM_P2
2022/08/19 00:00:04;;;;;;;9.25;5.88;;;17.90;99.70;;;;;;5141161;27;20551;-48
2022/08/19 00:02:32;;;;;;;11.48;4.85;;;17.80;99.60;;;;;;5134252;27;20150;-42
2022/08/19 00:04:59;;;;;;;7.28;5.43;;;17.80;99.40;;;;;;5128343;27;20047;-45
2022/08/19 00:07:26;;;;;;;4.63;4.03;;;17.80;99.50;;;;;;5146133;27;20078;-44
2022/08/19 00:09:53;;;;;;;7.50;4.97;;;17.80;99.40;;;;;;5150063;27;20114;-45
2022/08/19 00:12:20;;;;;;;9.48;5.85;;;17.80;99.40;;;;;;5124548;27;20080;-42
2022/08/19 00:14:47;;;;;;;6.63;4.85;;;17.80;99.50;;;;;;5132821;27;20071;-46
2022/08/19 00:17:14;;;;;;;9.50;6.10;;;17.70;99.40;;;;;;5143255;27;20258;-47
2022/08/19 00:19:42;;;;;;;8.15;5.90;;;17.70;99.50;;;;;;5150561;27;20170;-47
2022/08/19 00:22:09;;;;;;;7.68;5.55;;;17.70;99.40;;;;;;5125406;27;20134;-47
2022/08/19 00:24:38;;;;;;;8.48;6.38;;;17.70;99.50;;;;;;5144199;27;20061;-43
2022/08/19 00:27:05;;;;;;;8.25;6.72;;;17.60;99.50;;;;;;5146348;27;20049;-47
2022/08/19 00:29:32;;;;;;;8.80;7.47;;;17.60;99.80;;;;;;5134838;27;20082;-44
2022/08/19 00:31:59;;;;;;;8.07;5.63;;;17.60;99.90;;;;;;5147604;27;20081;-45
2022/08/19 00:34:28;;;;;;;7.07;6.18;;;17.60;99.90;;;;;;5146476;27;20095;-48
2022/08/19 00:36:56;;;;;;;6.90;5.53;;;17.60;99.90;;;;;;5127866;27;20051;-48
2022/08/19 00:39:23;;;;;;;8.35;6.80;;;17.50;99.80;;;;;;5135991;27;20122;-44
2022/08/19 00:41:50;;;;;;;7.18;6.47;;;17.50;99.90;;;;;;5145362;27;21333;-49
2022/08/19 00:44:19;;;;;;;7.57;6.65;;;17.50;99.90;;;;;;5139899;27;20071;-46
2022/08/19 00:46:47;;;;;;;7.85;6.55;;;17.50;99.90;;;;;;5122424;27;20051;-47
2022/08/19 00:49:16;;;;;;;8.98;6.40;;;17.40;99.90;;;;;;5154117;27;20539;-45
2022/08/19 00:51:43;;;;;;;9.00;6.20;;;17.50;99.90;;;;;;5126469;27;20055;-43
2022/08/19 00:54:11;;;;;;;7.32;6.50;;;17.30;99.90;;;;;;5137657;27;20142;-47
2022/08/19 00:56:38;;;;;;;8.65;6.57;;;17.30;99.90;;;;;;5141786;27;20098;-42
2022/08/19 00:59:08;;;;;;;7.28;5.88;;;17.30;99.90;;;;;;5141822;27;20553;-46
2022/08/19 01:01:36;;;;;;;11.88;7.05;;;17.30;99.90;;;;;;5142518;27;20911;-43
2022/08/19 01:04:02;;;;;;;8.00;5.95;;;17.30;99.90;;;;;;5148667;27;20130;-48
2022/08/19 01:06:32;;;;;;;9.30;7.07;;;17.30;99.90;;;;;;5147400;27;20050;-45
2022/08/19 01:08:59;;;;;;;7.68;5.85;;;17.30;99.90;;;;;;5149868;27;20402;-45
2022/08/19 01:11:27;;;;;;;8.32;7.50;;;17.20;99.90;;;;;;5148054;27;20430;-45
2022/08/19 01:13:54;;;;;;;7.63;6.80;;;17.20;99.90;;;;;;5144518;27;20053;-43
2022/08/19 01:16:22;;;;;;;8.27;6.68;;;17.20;99.90;;;;;;5126952;27;20496;-45
2022/08/19 01:18:49;;;;;;;7.63;6.68;;;17.10;99.90;;;;;;5134190;27;20085;-45
2022/08/19 01:21:19;;;;;;;9.23;6.18;;;17.10;99.90;;;;;;5120472;27;20085;-42
2022/08/19 01:23:47;;;;;;;9.20;6.25;;;17.10;99.90;;;;;;5155193;27;20493;-43
2022/08/19 01:26:19;;;;;;;9.98;6.78;;;17.10;99.90;;;;;;5155319;27;20090;-45
2022/08/19 01:28:47;;;;;;;7.32;5.78;;;17.10;99.90;;;;;;5155193;27;20092;-43
2022/08/19 01:31:16;;;;;;;9.02;7.60;;;17.00;99.90;;;;;;5155048;27;20482;-45
2022/08/19 01:33:42;;;;;;;9.85;8.10;;;17.00;99.90;;;;;;5137088;27;20146;-44
2022/08/19 01:36:11;;;;;;;7.10;6.05;;;17.00;99.90;;;;;;5155124;27;20138;-46
2022/08/19 01:38:38;;;;;;;10.52;7.15;;;17.00;99.90;;;;;;5136638;27;20050;-43
2022/08/19 01:41:06;;;;;;;9.77;7.82;;;17.00;99.90;;;;;;5155017;27;20130;-45
2022/08/19 01:43:33;;;;;;;6.60;6.00;;;16.90;99.90;;;;;;5136684;27;20042;-46
2022/08/19 01:46:00;;;;;;;8.93;7.20;;;16.90;99.90;;;;;;5155113;27;20130;-43
2022/08/19 01:48:29;;;;;;;8.70;6.72;;;16.90;99.90;;;;;;5136506;27;20141;-45
2022/08/19 01:50:55;;;;;;;9.07;8.02;;;16.80;99.90;;;;;;5153186;27;20082;-45
2022/08/19 01:53:22;;;;;;;8.40;7.22;;;16.80;99.90;;;;;;5132701;27;20513;-47
2022/08/19 01:55:49;;;;;;;11.95;7.15;;;16.80;99.90;;;;;;5120784;27;20134;-49
2022/08/19 01:58:19;;;;;;;11.70;7.80;;;16.80;99.90;;;;;;5126358;27;20056;-43
2022/08/19 02:00:47;;;;;;;9.57;8.15;;;16.80;99.90;;;;;;5144272;27;20051;-42
2022/08/19 02:03:14;;;;;;;9.20;7.68;;;16.70;99.90;;;;;;5135418;27;20087;-45
2022/08/19 02:05:41;;;;;;;8.43;7.53;;;16.70;99.90;;;;;;5123011;27;20119;-43
2022/08/19 02:08:08;;;;;;;8.50;6.72;;;16.70;99.90;;;;;;5151425;27;20120;-47
2022/08/19 02:10:35;;;;;;;8.73;7.07;;;16.70;99.90;;;;;;5146546;27;20506;-46
2022/08/19 02:13:02;;;;;;;9.15;7.75;;;16.70;99.90;;;;;;5123063;27;20502;-46
2022/08/19 02:15:30;;;;;;;6.38;5.70;;;16.70;99.90;;;;;;5126220;27;20082;-46
2022/08/19 02:17:57;;;;;;;10.05;8.10;;;16.60;99.90;;;;;;5143065;27;20565;-47
2022/08/19 02:20:23;;;;;;;8.52;7.13;;;16.60;99.90;;;;;;5141110;27;20447;-46
2022/08/19 02:22:50;;;;;;;7.80;6.53;;;16.60;99.90;;;;;;5114358;28;20491;-44
2022/08/19 02:25:17;;;;;;;8.75;6.97;;;16.60;99.90;;;;;;5144153;27;20081;-45
2022/08/19 02:27:44;;;;;;;9.63;7.90;;;16.50;99.90;;;;;;5152338;27;20093;-42
2022/08/19 02:30:13;;;;;;;8.70;6.57;;;16.60;99.90;;;;;;5117074;27;20074;-42
2022/08/19 02:32:41;;;;;;;12.10;8.70;;;16.50;99.90;;;;;;5152523;27;20135;-43
2022/08/19 02:35:08;;;;;;;11.70;9.45;;;16.50;99.90;;;;;;5124169;27;20051;-45
2022/08/19 02:40:19;;;;;;;11.00;8.43;;;16.50;99.90;;;;;;5122200;27;20576;-43
2022/08/19 02:42:46;;;;;;;11.45;8.77;;;16.50;99.90;;;;;;5139400;27;20138;-44
2022/08/19 02:45:13;;;;;;;11.25;8.93;;;16.50;99.90;;;;;;5135509;27;20126;-48
2022/08/19 02:47:42;;;;;;;9.10;8.25;;;16.50;99.90;;;;;;5138673;27;20055;-49
2022/08/19 02:50:09;;;;;;;11.40;8.52;;;16.50;99.90;;;;;;5122960;27;20057;-43
2022/08/19 02:52:36;;;;;;;7.90;7.10;;;16.40;99.90;;;;;;5147430;27;20550;-44
2022/08/19 02:55:03;;;;;;;16.02;10.60;;;16.40;99.90;;;;;;5130173;27;20158;-43
2022/08/19 02:57:32;;;;;;;11.80;8.98;;;16.40;99.90;;;;;;5144345;27;20130;-43
2022/08/19 02:59:58;;;;;;;8.98;8.05;;;16.40;99.90;;;;;;5144044;27;20053;-45
2022/08/19 03:02:25;;;;;;;11.18;8.93;;;16.40;99.90;;;;;;5132346;27;20137;-46
2022/08/19 03:04:53;;;;;;;11.70;9.63;;;16.40;99.90;;;;;;5152142;27;20119;-45
2022/08/19 03:07:20;;;;;;;10.13;7.60;;;16.40;99.90;;;;;;5120740;27;20131;-44
2022/08/19 03:09:47;;;;;;;9.45;7.70;;;16.40;99.90;;;;;;5147738;27;20133;-44
2022/08/19 03:12:14;;;;;;;10.57;7.30;;;16.40;99.90;;;;;;5147125;27;20138;-43
2022/08/19 03:14:40;;;;;;;12.23;8.85;;;16.30;99.90;;;;;;5143720;27;20116;-46
2022/08/19 03:17:08;;;;;;;13.45;10.60;;;16.30;99.90;;;;;;5143937;27;20463;-36
2022/08/19 03:19:35;;;;;;;8.63;7.72;;;16.30;99.90;;;;;;5147891;27;20129;-45
2022/08/19 03:22:04;;;;;;;13.73;8.95;;;16.30;99.90;;;;;;5147526;27;20398;-44
2022/08/19 03:24:31;;;;;;;12.52;9.85;;;16.30;99.90;;;;;;5135580;27;20170;-43
2022/08/19 03:26:58;;;;;;;12.60;9.63;;;16.20;99.90;;;;;;5129195;27;20078;-46
2022/08/19 03:29:25;;;;;;;12.05;9.23;;;16.30;99.90;;;;;;5136285;27;20095;-45
2022/08/19 03:31:52;;;;;;;9.35;8.45;;;16.20;99.90;;;;;;5150487;27;20554;-45
2022/08/19 03:34:20;;;;;;;9.50;7.95;;;16.20;99.90;;;;;;5134065;27;20046;-45
2022/08/19 03:36:47;;;;;;;8.77;7.88;;;16.20;99.90;;;;;;5137288;27;20125;-42
2022/08/19 03:39:16;;;;;;;10.35;8.75;;;16.20;99.90;;;;;;5146800;27;20043;-39
2022/08/19 03:41:43;;;;;;;14.70;11.63;;;16.20;99.90;;;;;;5121031;27;20131;-47
2022/08/19 03:44:10;;;;;;;11.70;9.60;;;16.20;99.90;;;;;;5139867;27;20082;-47
2022/08/19 03:46:37;;;;;;;13.07;9.80;;;16.20;99.90;;;;;;5133483;27;20054;-45
2022/08/19 03:49:07;;;;;;;9.77;8.55;;;16.10;99.90;;;;;;5142544;27;20089;-45
2022/08/19 03:51:34;;;;;;;10.25;8.10;;;16.10;99.90;;;;;;5146163;27;20099;-47
2022/08/19 03:54:02;;;;;;;9.90;8.90;;;16.10;99.90;;;;;;5141359;27;20502;-51
2022/08/19 03:56:30;;;;;;;15.40;10.02;;;16.10;99.90;;;;;;5144121;27;20043;-45
2022/08/19 03:58:57;;;;;;;12.30;10.20;;;16.10;99.90;;;;;;5147224;27;20070;-43
2022/08/19 04:01:26;;;;;;;11.38;9.23;;;16.10;99.90;;;;;;5145668;27;20478;-45
2022/08/19 04:03:53;;;;;;;14.00;11.40;;;16.10;99.90;;;;;;5125298;27;20047;-46
2022/08/19 04:06:22;;;;;;;13.68;11.82;;;16.00;99.90;;;;;;5125092;27;20070;-40
2022/08/19 04:08:50;;;;;;;13.07;10.55;;;16.00;99.90;;;;;;5136207;27;20154;-51
2022/08/19 04:11:17;;;;;;;13.57;11.40;;;16.00;99.90;;;;;;5136537;27;20057;-48
2022/08/19 04:13:45;;;;;;;12.32;9.07;;;16.00;99.90;;;;;;5127594;27;20535;-46
2022/08/19 04:16:12;;;;;;;13.90;11.32;;;16.00;99.90;;;;;;5146449;27;20089;-51
2022/08/19 04:18:39;;;;;;;13.07;11.68;;;16.00;99.90;;;;;;5127326;27;20042;-51
2022/08/19 04:21:06;;;;;;;12.50;10.75;;;16.00;99.90;;;;;;5146569;27;20067;-48
2022/08/19 04:23:33;;;;;;;12.85;10.48;;;16.00;99.90;;;;;;5145274;27;20051;-48
2022/08/19 04:26:00;;;;;;;11.23;9.95;;;16.00;99.90;;;;;;5142292;27;20070;-47
2022/08/19 04:28:27;;;;;;;12.88;11.48;;;16.00;99.90;;;;;;5142392;27;20057;-42
2022/08/19 04:30:55;;;;;;;13.00;10.10;;;16.00;99.90;;;;;;5142381;27;20092;-45
2022/08/19 04:33:23;;;;;;;10.88;9.68;;;16.00;99.90;;;;;;5131251;27;20133;-48
2022/08/19 04:35:51;;;;;;;14.27;11.68;;;16.00;99.90;;;;;;5142385;27;20082;-44
2022/08/19 04:38:19;;;;;;;11.95;9.70;;;16.00;99.90;;;;;;5149706;27;20046;-46
2022/08/19 04:43:32;;;;;;;17.98;12.15;;;15.90;99.90;;;;;;5150632;27;20053;-43
2022/08/19 04:46:04;;;;;;;17.95;12.93;;;15.90;99.90;;;;;;5134617;27;20126;-46
2022/08/19 04:48:31;;;;;;;11.80;8.63;;;15.90;99.90;;;;;;5145525;27;20134;-42
2022/08/19 04:50:58;;;;;;;16.00;11.55;;;15.90;99.90;;;;;;5138114;27;20434;-50
2022/08/19 04:53:28;;;;;;;13.55;9.93;;;15.90;99.90;;;;;;5139119;27;20043;-46
2022/08/19 04:55:56;;;;;;;15.57;11.30;;;15.90;99.90;;;;;;5126383;27;20047;-47
2022/08/19 04:58:22;;;;;;;11.82;9.00;;;15.90;99.90;;;;;;5146173;27;20386;-46
2022/08/19 05:00:49;;;;;;;11.35;10.15;;;15.90;99.90;;;;;;5136660;27;20078;-48
2022/08/19 05:03:17;;;;;;;13.23;11.68;;;15.90;99.90;;;;;;5125755;27;20081;-47
2022/08/19 05:05:44;;;;;;;11.80;10.10;;;15.90;99.90;;;;;;5134894;27;20097;-45
2022/08/19 05:08:11;;;;;;;12.07;10.15;;;15.80;99.90;;;;;;5139866;27;20099;-47
2022/08/19 05:10:37;;;;;;;12.40;11.02;;;15.80;99.90;;;;;;5150274;27;20095;-45
2022/08/19 05:13:04;;;;;;;13.35;11.95;;;15.80;99.90;;;;;;5134224;27;20410;-46
2022/08/19 05:15:31;;;;;;;12.93;10.90;;;15.80;99.90;;;;;;5122495;27;20049;-47
2022/08/19 05:23:28;;;;;;;15.45;10.93;;;15.80;99.90;;;;;;5141946;27;20051;-49
2022/08/19 05:25:55;;;;;;;12.15;9.75;;;15.80;99.90;;;;;;5131403;27;20126;-47
2022/08/19 05:28:22;;;;;;;9.77;8.73;;;15.80;99.90;;;;;;5147442;27;20098;-46
2022/08/19 05:30:50;;;;;;;14.50;11.68;;;15.80;99.90;;;;;;5131643;27;20217;-45
2022/08/19 05:33:17;;;;;;;12.93;10.13;;;15.80;99.90;;;;;;5120122;27;20492;-46
2022/08/19 05:35:46;;;;;;;14.80;11.40;;;15.90;99.90;;;;;;5126946;27;20130;-43
2022/08/19 05:38:12;;;;;;;13.50;10.38;;;15.90;99.90;;;;;;5123605;27;20047;-50
2022/08/19 05:40:39;;;;;;;18.00;14.13;;;15.90;99.90;;;;;;5123274;27;20115;-51
2022/08/19 05:43:07;;;;;;;24.48;16.58;;;15.90;99.90;;;;;;5142874;27;20130;-48
2022/08/19 05:45:34;;;;;;;20.70;16.40;;;16.00;99.90;;;;;;5147447;27;20131;-51
2022/08/19 05:48:00;;;;;;;28.67;20.55;;;16.00;99.90;;;;;;5122623;27;20090;-49
2022/08/19 05:50:27;;;;;;;29.10;20.65;;;16.10;99.90;;;;;;5133271;27;20096;-50
2022/08/19 05:52:55;;;;;;;24.48;20.00;;;16.20;99.90;;;;;;5122628;27;20130;-48
2022/08/19 05:55:23;;;;;;;26.77;20.48;;;16.30;99.90;;;;;;5122893;27;20068;-45
2022/08/19 05:57:50;;;;;;;29.25;20.88;;;16.40;99.90;;;;;;5141649;27;20043;-48
2022/08/19 06:00:17;;;;;;;27.98;20.63;;;16.50;99.90;;;;;;5149813;27;20047;-45
2022/08/19 06:02:44;;;;;;;22.10;18.88;;;16.60;99.90;;;;;;5147054;27;20142;-50
2022/08/19 06:05:11;;;;;;;26.77;21.38;;;16.70;99.90;;;;;;5135934;27;20123;-46
2022/08/19 06:07:38;;;;;;;28.38;20.35;;;16.80;99.90;;;;;;5126673;27;20047;-49
2022/08/19 06:10:08;;;;;;;26.92;19.88;;;17.00;99.90;;;;;;5151245;27;20070;-48
2022/08/19 06:12:35;;;;;;;27.88;21.05;;;17.10;99.90;;;;;;5137791;27;20053;-47
2022/08/19 06:15:03;;;;;;;29.02;20.38;;;17.20;99.90;;;;;;5125226;27;20051;-47
2022/08/19 06:17:30;;;;;;;27.10;20.15;;;17.30;99.90;;;;;;5130677;27;20047;-45
2022/08/19 06:19:57;;;;;;;25.05;20.02;;;17.40;99.90;;;;;;5130885;27;20055;-48
2022/08/19 06:22:23;;;;;;;27.15;20.90;;;17.50;99.90;;;;;;5140560;27;20046;-48
2022/08/19 06:24:52;;;;;;;28.08;19.65;;;17.70;99.90;;;;;;5114502;27;20402;-48
2022/08/19 06:27:20;;;;;;;24.73;19.90;;;17.80;99.90;;;;;;5148500;27;20434;-51
2022/08/19 06:29:47;;;;;;;24.63;19.40;;;17.90;99.90;;;;;;5122608;28;20054;-50
2022/08/19 06:32:16;;;;;;;27.08;20.38;;;18.00;99.90;;;;;;5150010;27;20468;-47
2022/08/19 06:34:42;;;;;;;28.02;19.65;;;18.10;99.90;;;;;;5121356;28;20096;-50
2022/08/19 06:37:09;;;;;;;24.30;19.63;;;18.20;99.90;;;;;;5148951;27;20121;-49
2022/08/19 06:39:38;;;;;;;24.38;19.23;;;18.30;99.90;;;;;;5153740;27;20050;-50
2022/08/19 06:42:08;;;;;;;24.52;18.85;;;18.40;99.90;;;;;;5130486;27;20075;-51
2022/08/19 06:44:37;;;;;;;24.40;19.67;;;18.50;99.90;;;;;;5122588;27;20107;-51
2022/08/19 06:47:04;;;;;;;26.38;19.13;;;18.60;99.90;;;;;;5148809;27;20074;-50
2022/08/19 06:49:31;;;;;;;24.45;18.80;;;18.70;99.90;;;;;;5147918;27;20489;-50
2022/08/19 06:51:58;;;;;;;22.58;18.38;;;18.80;99.90;;;;;;5138518;27;20054;-49
2022/08/19 06:54:25;;;;;;;23.70;17.63;;;19.00;99.90;;;;;;5127256;27;20486;-45
2022/08/19 06:56:52;;;;;;;22.33;17.83;;;19.10;99.90;;;;;;5132278;27;20130;-47
2022/08/19 06:59:19;;;;;;;17.50;15.48;;;19.30;99.90;;;;;;5155327;27;20066;-51
2022/08/19 07:01:48;;;;;;;18.83;16.33;;;19.40;99.90;;;;;;5130509;27;20346;-48
2022/08/19 07:04:16;;;;;;;19.98;17.40;;;19.50;99.90;;;;;;5146141;27;20215;-48
2022/08/19 07:06:43;;;;;;;18.40;15.85;;;19.70;99.90;;;;;;5148595;27;20039;-51
2022/08/19 07:09:10;;;;;;;19.15;14.85;;;19.80;99.90;;;;;;5147618;27;20125;-49
2022/08/19 07:11:37;;;;;;;20.00;15.35;;;20.00;99.90;;;;;;5147518;27;20046;-50
2022/08/19 07:14:06;;;;;;;17.70;13.75;;;20.10;99.90;;;;;;5141683;27;20058;-49
2022/08/19 07:16:33;;;;;;;18.35;15.05;;;20.20;99.90;;;;;;5152165;27;20058;-50
2022/08/19 07:19:01;;;;;;;19.00;15.05;;;20.40;99.90;;;;;;5144643;27;20131;-48
2022/08/19 07:21:28;;;;;;;19.05;13.85;;;20.50;99.90;;;;;;5145332;27;20109;-47
2022/08/19 07:23:55;;;;;;;20.75;14.77;;;20.60;99.90;;;;;;5129034;27;20471;-47
2022/08/19 07:26:24;;;;;;;18.13;14.18;;;20.70;99.90;;;;;;5155072;27;20111;-51
2022/08/19 07:28:51;;;;;;;18.27;14.38;;;20.90;99.90;;;;;;5126154;27;20371;-47
2022/08/19 07:31:19;;;;;;;17.20;14.18;;;21.00;99.90;;;;;;5130649;27;20074;-50
2022/08/19 07:33:46;;;;;;;18.63;14.30;;;21.10;99.90;;;;;;5139423;27;20376;-47
2022/08/19 07:36:15;;;;;;;20.55;14.82;;;21.20;99.90;;;;;;5129070;27;20050;-50
2022/08/19 07:38:43;;;;;;;19.27;13.93;;;21.40;99.90;;;;;;5135898;27;20089;-46
2022/08/19 07:41:10;;;;;;;16.88;13.15;;;21.50;99.90;;;;;;5144256;27;20118;-50
2022/08/19 07:43:37;;;;;;;17.77;12.38;;;21.70;99.90;;;;;;5156507;27;20134;-48
2022/08/19 07:46:03;;;;;;;17.35;12.57;;;21.80;99.90;;;;;;5139182;27;20061;-49
2022/08/19 07:48:30;;;;;;;13.48;12.10;;;21.90;99.90;;;;;;5138945;27;20072;-44
2022/08/19 07:50:59;;;;;;;13.45;11.60;;;22.10;99.90;;;;;;5156696;27;20046;-49
2022/08/19 07:53:27;;;;;;;14.52;10.65;;;22.20;99.90;;;;;;5138938;27;20058;-48
2022/08/19 07:55:54;;;;;;;13.25;11.10;;;22.40;99.90;;;;;;5157087;27;20090;-49
2022/08/19 07:58:21;;;;;;;12.98;9.88;;;22.50;99.90;;;;;;5157104;27;20088;-47
2022/08/19 08:00:49;;;;;;;13.52;8.65;;;22.60;99.90;;;;;;5149603;27;20126;-50
2022/08/19 08:03:17;;;;;;;12.88;9.57;;;22.80;99.90;;;;;;5137538;27;20134;-49
2022/08/19 08:11:14;;;;;;;11.88;7.85;;;23.20;99.90;;;;;;5124551;27;20043;-46
2022/08/19 08:13:41;;;;;;;10.23;7.35;;;23.30;99.60;;;;;;5124893;27;20051;-50
2022/08/19 08:16:08;;;;;;;8.52;7.63;;;23.50;99.40;;;;;;5143650;27;20478;-52
2022/08/19 08:18:41;;;;;;;8.35;6.95;;;23.60;99.10;;;;;;5142388;27;20391;-47
2022/08/19 08:21:07;;;;;;;10.32;8.35;;;23.80;98.90;;;;;;5135422;27;20054;-50
2022/08/19 08:23:36;;;;;;;10.32;8.60;;;23.90;98.50;;;;;;5142439;27;20138;-50
2022/08/19 08:26:04;;;;;;;12.20;9.15;;;24.00;98.00;;;;;;5143242;27;20090;-48
2022/08/19 08:28:31;;;;;;;15.52;11.27;;;24.20;97.90;;;;;;5151466;27;20066;-49
2022/08/19 08:30:58;;;;;;;14.50;12.25;;;24.30;97.70;;;;;;5142519;27;20047;-49
2022/08/19 08:33:26;;;;;;;14.95;12.10;;;24.40;97.20;;;;;;5124836;27;20175;-48
2022/08/19 08:35:53;;;;;;;14.93;12.63;;;24.60;96.90;;;;;;5149140;27;20475;-49
2022/08/19 08:38:20;;;;;;;15.93;13.55;;;24.70;96.60;;;;;;5146348;27;20491;-51
2022/08/19 08:40:49;;;;;;;19.08;15.50;;;24.80;96.30;;;;;;5136145;27;20394;-50
2022/08/19 08:43:23;;;;;;;20.50;16.25;;;24.90;95.90;;;;;;5145204;27;20538;-51
2022/08/19 08:45:52;;;;;;;17.65;13.88;;;25.00;95.60;;;;;;5121414;27;20100;-50
2022/08/19 08:48:21;;;;;;;17.27;15.48;;;25.10;95.70;;;;;;5124529;27;20514;-45
2022/08/19 08:50:50;;;;;;;18.98;14.77;;;25.20;95.10;;;;;;5146963;27;20490;-50
2022/08/19 08:53:18;;;;;;;18.63;14.57;;;25.40;95.00;;;;;;5151731;27;20050;-48
2022/08/19 08:55:45;;;;;;;17.95;13.63;;;25.50;94.30;;;;;;5134737;27;20137;-51
2022/08/19 08:58:15;;;;;;;21.77;15.68;;;25.60;94.30;;;;;;5123387;27;20099;-50
2022/08/19 09:00:45;;;;;;;15.40;13.75;;;25.70;93.80;;;;;;5132154;27;20387;-46
2022/08/19 09:03:17;;;;;;;25.45;15.35;;;25.90;93.90;;;;;;5133944;27;20047;-50
2022/08/19 09:06:00;;;;;;;15.80;14.15;;;25.90;93.60;;;;;;5135207;27;20075;-49
2022/08/19 09:08:40;;;;;;;18.25;15.70;;;26.10;93.70;;;;;;5116908;27;20096;-47
2022/08/19 09:11:08;;;;;;;18.85;13.60;;;26.30;93.30;;;;;;5134902;27;20058;-48
2022/08/19 09:13:40;;;;;;;16.25;14.00;;;26.30;93.00;;;;;;5116631;27;20463;-48
2022/08/19 09:16:08;;;;;;;13.20;11.38;;;26.50;93.10;;;;;;5135000;27;20136;-51
2022/08/19 09:18:40;;;;;;;10.73;9.63;;;26.60;92.50;;;;;;5134701;27;20126;-44
2022/08/19 09:21:08;;;;;;;11.90;10.65;;;26.80;92.00;;;;;;5116553;27;20047;-47
2022/08/19 09:23:35;;;;;;;12.30;9.85;;;26.90;91.50;;;;;;5134044;27;20050;-38
2022/08/19 09:26:02;;;;;;;11.68;10.57;;;26.90;91.10;;;;;;5117552;27;20118;-49
2022/08/19 09:28:31;;;;;;;12.65;10.30;;;27.00;90.90;;;;;;5135300;27;20077;-50
2022/08/19 09:31:00;;;;;;;12.02;10.68;;;27.20;90.30;;;;;;5136679;27;20322;-49
2022/08/19 09:33:27;;;;;;;10.93;9.82;;;27.20;89.10;;;;;;5127147;27;20054;-48
2022/08/19 09:36:03;;;;;;;12.07;10.75;;;27.30;89.20;;;;;;5125133;27;20053;-47
2022/08/19 09:38:30;;;;;;;11.20;10.10;;;27.40;90.10;;;;;;5129270;27;20066;-46
2022/08/19 09:40:57;;;;;;;12.10;10.88;;;27.50;90.00;;;;;;5136227;27;20081;-49
2022/08/19 09:43:26;;;;;;;15.07;10.98;;;27.60;89.40;;;;;;5122457;27;20453;-50
2022/08/19 09:45:53;;;;;;;14.50;13.00;;;27.70;89.20;;;;;;5122533;27;20478;-49
2022/08/19 09:48:21;;;;;;;10.85;9.80;;;27.80;88.00;;;;;;5134212;27;20532;-44
2022/08/19 09:50:49;;;;;;;15.68;12.80;;;27.90;88.10;;;;;;5123041;27;20066;-48
2022/08/19 09:53:16;;;;;;;12.93;11.52;;;27.90;87.20;;;;;;5136750;27;20050;-47
2022/08/19 09:55:43;;;;;;;13.80;12.45;;;28.00;87.00;;;;;;5144792;27;20050;-51
2022/08/19 09:58:10;;;;;;;15.57;13.48;;;28.20;86.40;;;;;;5125532;27;20042;-49
2022/08/19 10:00:38;;;;;;;13.68;10.88;;;28.20;85.90;;;;;;5145020;27;20428;-49
2022/08/19 10:03:04;;;;;;;12.88;11.63;;;28.40;86.30;;;;;;5144506;27;20469;-49
2022/08/19 10:05:51;;;;;;;13.65;10.73;;;28.40;85.40;;;;;;5152944;27;20055;-48
2022/08/19 10:08:19;;;;;;;12.45;10.80;;;28.50;84.80;;;;;;5129467;27;20083;-50
2022/08/19 10:10:46;;;;;;;12.57;11.32;;;28.70;85.40;;;;;;5152843;27;20057;-48
2022/08/19 10:13:13;;;;;;;13.43;11.98;;;28.70;83.10;;;;;;5143706;27;20061;-50
2022/08/19 10:15:40;;;;;;;11.68;10.40;;;28.80;82.50;;;;;;5144379;27;20096;-49
2022/08/19 10:18:07;;;;;;;13.82;12.45;;;28.80;82.50;;;;;;5151851;27;20138;-48
2022/08/19 10:20:36;;;;;;;11.35;10.18;;;28.90;81.00;;;;;;5140645;27;20043;-40
2022/08/19 10:23:03;;;;;;;14.63;13.23;;;28.90;79.70;;;;;;5140773;27;20103;-49
2022/08/19 10:25:33;;;;;;;11.65;10.25;;;29.00;79.70;;;;;;5134189;27;20066;-50
2022/08/19 10:28:00;;;;;;;12.93;10.77;;;29.10;80.00;;;;;;5125863;27;20050;-46
2022/08/19 10:30:27;;;;;;;11.60;10.50;;;29.20;79.40;;;;;;5125746;27;20141;-50
2022/08/19 10:32:54;;;;;;;11.98;10.77;;;29.30;79.20;;;;;;5149944;27;20047;-47
2022/08/19 10:35:21;;;;;;;11.63;10.13;;;29.40;78.50;;;;;;5135575;27;20173;-48
2022/08/19 10:37:49;;;;;;;10.63;9.52;;;29.40;77.80;;;;;;5133465;27;20126;-51
2022/08/19 10:40:16;;;;;;;13.30;11.65;;;29.50;77.30;;;;;;5144232;27;20513;-48
2022/08/19 10:42:43;;;;;;;10.73;9.63;;;29.60;75.70;;;;;;5138892;27;20078;-48
2022/08/19 10:45:11;;;;;;;9.93;8.10;;;29.50;76.10;;;;;;5136359;27;20043;-41
2022/08/19 10:47:37;;;;;;;11.43;7.63;;;29.40;75.90;;;;;;5136387;27;20082;-51
2022/08/19 10:52:51;;;;;;;11.32;7.03;;;29.20;76.90;;;;;;5140231;27;20050;-46
2022/08/19 10:58:03;;;;;;;11.43;10.30;;;29.40;75.60;;;;;;5145570;27;20177;-50
2022/08/19 11:00:30;;;;;;;13.60;11.10;;;29.60;75.40;;;;;;5135978;27;20074;-50
2022/08/19 11:02:57;;;;;;;14.63;10.98;;;29.70;76.10;;;;;;5120223;28;20076;-49
2022/08/19 11:05:24;;;;;;;12.38;10.48;;;29.70;76.90;;;;;;5124426;27;20663;-48
2022/08/19 11:07:52;;;;;;;14.07;10.60;;;29.80;77.60;;;;;;5114094;28;20055;-50
2022/08/19 11:10:19;;;;;;;13.32;9.73;;;29.70;77.10;;;;;;5128186;27;20051;-47
2022/08/19 11:12:47;;;;;;;13.05;10.43;;;29.60;77.10;;;;;;5135412;27;20043;-50
2022/08/19 11:15:14;;;;;;;12.95;11.00;;;29.60;77.20;;;;;;5143734;27;20107;-51
2022/08/19 11:17:42;;;;;;;10.55;9.52;;;29.60;76.90;;;;;;5141080;27;20051;-48
2022/08/19 11:20:10;;;;;;;14.45;10.10;;;29.70;77.30;;;;;;5119752;27;20095;-48
2022/08/19 11:22:37;;;;;;;15.40;9.93;;;29.80;77.50;;;;;;5116670;27;20047;-51
2022/08/19 11:25:06;;;;;;;15.20;11.77;;;29.90;77.10;;;;;;5151751;27;20054;-49
2022/08/19 11:27:33;;;;;;;12.68;10.30;;;30.10;76.10;;;;;;5145215;27;20484;-47
2022/08/19 11:30:00;;;;;;;13.38;11.30;;;30.20;76.00;;;;;;5127578;27;20498;-50
2022/08/19 11:32:27;;;;;;;17.17;13.23;;;30.20;75.30;;;;;;5119095;27;20135;-49
2022/08/19 11:34:54;;;;;;;14.32;12.50;;;30.10;74.70;;;;;;5149100;27;20051;-50
2022/08/19 11:37:20;;;;;;;15.43;10.73;;;30.00;74.70;;;;;;5149452;27;20086;-50
2022/08/19 11:39:47;;;;;;;12.38;10.90;;;29.90;75.90;;;;;;5144510;27;20082;-50
2022/08/19 11:45:00;;;;;;;16.02;9.98;;;29.90;74.50;;;;;;5145660;27;20047;-51
2022/08/19 11:47:27;;;;;;;12.00;7.78;;;29.90;72.70;;;;;;5126435;27;20123;-47
2022/08/19 11:49:54;;;;;;;12.07;8.10;;;29.90;72.80;;;;;;5124279;27;20489;-51
2022/08/19 11:52:20;;;;;;;10.88;7.22;;;30.00;72.00;;;;;;5130291;27;20087;-50
2022/08/19 11:54:47;;;;;;;8.82;7.90;;;30.00;71.20;;;;;;5146346;27;20090;-47
2022/08/19 11:57:16;;;;;;;10.27;6.85;;;30.00;71.70;;;;;;5143621;27;20043;-48
2022/08/19 11:59:43;;;;;;;8.90;7.43;;;30.10;71.10;;;;;;5143945;27;20480;-47
2022/08/19 12:02:10;;;;;;;10.57;7.97;;;30.20;71.20;;;;;;5133510;27;20538;-50
2022/08/19 12:04:37;;;;;;;11.50;9.35;;;30.40;72.10;;;;;;5141404;27;20047;-51
2022/08/19 12:07:04;;;;;;;14.73;10.98;;;30.40;72.30;;;;;;5126330;27;20129;-48
2022/08/19 12:09:31;;;;;;;10.90;8.75;;;30.50;71.90;;;;;;5147614;27;20508;-47
2022/08/19 12:11:59;;;;;;;11.35;8.32;;;30.50;71.60;;;;;;5134729;27;20055;-46
2022/08/19 12:14:27;;;;;;;8.70;7.40;;;30.70;69.60;;;;;;5139283;27;20042;-50
2022/08/19 12:16:54;;;;;;;9.77;7.53;;;30.80;70.20;;;;;;5128703;27;20043;-51
2022/08/19 12:19:21;;;;;;;9.18;6.72;;;30.90;68.90;;;;;;5145804;27;20158;-50
2022/08/19 12:21:48;;;;;;;8.88;7.10;;;30.90;69.40;;;;;;5154881;27;20089;-49
2022/08/19 12:24:14;;;;;;;6.30;5.68;;;31.00;68.30;;;;;;5145884;27;20055;-49
2022/08/19 12:26:42;;;;;;;8.05;6.40;;;31.00;66.80;;;;;;5124223;27;20051;-46
2022/08/19 12:29:08;;;;;;;8.35;5.20;;;31.10;67.50;;;;;;5125051;27;20043;-48
2022/08/19 12:31:37;;;;;;;7.93;5.63;;;31.10;68.10;;;;;;5152427;27;20043;-51
2022/08/19 12:34:03;;;;;;;9.25;6.60;;;31.20;67.60;;;;;;5123315;27;20478;-49
2022/08/19 12:36:30;;;;;;;6.70;5.70;;;31.20;66.20;;;;;;5145412;27;20054;-48
2022/08/19 12:38:58;;;;;;;7.95;6.30;;;31.30;66.70;;;;;;5122958;27;20107;-45
2022/08/19 12:41:25;;;;;;;9.40;7.00;;;31.40;66.10;;;;;;5132338;27;20099;-50
2022/08/19 12:43:52;;;;;;;10.07;7.55;;;31.60;66.00;;;;;;5142873;27;20103;-49
2022/08/19 12:46:19;;;;;;;13.73;8.10;;;31.60;65.50;;;;;;5142260;27;20122;-47
2022/08/19 12:48:47;;;;;;;9.80;8.80;;;31.60;65.20;;;;;;5145229;27;20139;-47
2022/08/19 12:51:15;;;;;;;7.88;6.43;;;31.60;65.10;;;;;;5147914;27;20043;-50
2022/08/19 12:53:42;;;;;;;11.60;7.95;;;31.60;66.30;;;;;;5117290;27;20058;-50
2022/08/19 12:56:09;;;;;;;12.25;8.25;;;31.60;66.30;;;;;;5154173;27;20554;-50
2022/08/19 12:58:36;;;;;;;10.07;7.82;;;31.60;66.90;;;;;;5145407;27;20050;-46
2022/08/19 13:01:07;;;;;;;6.78;5.82;;;31.70;66.40;;;;;;5135347;27;20070;-47